createdAt,value
2022-08-05T14:30:59.100Z,29.65
2022-08-05T14:33:32.596Z,29.67
2022-08-05T14:36:21.817Z,29.70
2022-08-05T14:38:54.214Z,29.71
2022-08-05T14:41:25.393Z,29.80
2022-08-05T14:44:09.721Z,29.84
2022-08-05T14:46:48.884Z,29.90
2022-08-05T14:49:19.138Z,29.94
2022-08-05T14:51:49.385Z,30.02
2022-08-05T14:54:29.691Z,30.07
2022-08-05T14:57:05.396Z,30.10
2022-08-05T14:59:39.977Z,30.15
2022-08-05T15:02:15.837Z,30.16
2022-08-05T15:04:49.891Z,30.19
2022-08-05T15:08:12.106Z,30.18
2022-08-05T15:10:11.288Z,30.21
2022-08-05T15:12:59.817Z,30.23
2022-08-05T15:15:55.585Z,30.23
2022-08-05T15:18:21.882Z,30.27
2022-08-05T15:20:52.266Z,30.28
2022-08-05T15:23:22.322Z,30.29
2022-08-05T15:25:56.634Z,30.35
2022-08-05T15:28:29.908Z,30.39
2022-08-05T15:31:00.290Z,30.33
2022-08-05T15:34:05.592Z,30.34
2022-08-05T15:36:25.623Z,30.33
2022-08-05T15:41:04.707Z,30.33
2022-08-05T15:41:58.235Z,30.34
2022-08-05T15:44:31.327Z,30.35
2022-08-05T15:47:03.992Z,30.31
2022-08-05T15:49:48.183Z,30.34
2022-08-05T15:52:29.338Z,30.30
2022-08-05T15:55:16.528Z,30.28
2022-08-05T15:57:48.981Z,30.21
2022-08-05T16:00:32.759Z,30.20
2022-08-05T16:03:11.253Z,30.17
2022-08-05T16:05:41.828Z,30.22
2022-08-05T16:08:11.993Z,30.28
2022-08-05T16:10:47.434Z,30.27
2022-08-05T16:13:23.341Z,30.23
2022-08-05T16:15:56.779Z,30.15
2022-08-05T16:18:28.112Z,30.14
2022-08-05T16:21:03.974Z,30.11
2022-08-05T16:23:53.539Z,30.12
2022-08-05T16:26:26.474Z,30.12
2022-08-05T16:28:57.559Z,30.08
2022-08-05T16:31:56.269Z,30.08
2022-08-05T16:34:20.399Z,30.01
2022-08-05T16:36:51.294Z,30.05
2022-08-05T16:39:22.847Z,30.05
2022-08-05T16:42:18.516Z,30.03
2022-08-05T16:44:57.693Z,30.03
2022-08-05T16:47:35.732Z,30.02
2022-08-05T16:50:08.164Z,30.05
2022-08-05T16:52:38.716Z,30.04
2022-08-05T16:55:17.302Z,30.01
2022-08-05T16:57:59.857Z,30.01
2022-08-05T17:00:34.486Z,30.00
2022-08-05T17:03:15.375Z,30.01
2022-08-05T17:05:54.289Z,29.99
2022-08-05T17:08:36.458Z,30.00
2022-08-05T17:11:23.824Z,30.00
2022-08-05T17:14:05.418Z,29.98
2022-08-05T17:16:40.840Z,29.93
2022-08-05T17:19:11.429Z,29.95
2022-08-05T17:21:41.689Z,29.96
2022-08-05T17:24:35.136Z,29.96
2022-08-05T17:27:12.542Z,29.98
2022-08-05T17:29:48.921Z,29.93
2022-08-05T17:32:21.523Z,29.93
2022-08-05T17:34:55.264Z,29.94
2022-08-05T17:37:40.280Z,29.92
2022-08-05T17:40:18.829Z,29.94
2022-08-05T17:42:53.969Z,29.95
2022-08-05T17:45:37.948Z,29.92
2022-08-05T17:48:10.139Z,29.90
2022-08-05T17:50:41.306Z,29.92
2022-08-05T17:53:11.691Z,29.91
2022-08-05T17:55:41.937Z,29.91
2022-08-05T17:58:16.234Z,29.90
2022-08-05T18:00:50.675Z,29.89
2022-08-05T18:03:58.974Z,29.92
2022-08-05T18:06:15.317Z,29.90
2022-08-05T18:08:52.686Z,29.89
2022-08-05T18:11:33.126Z,29.89
2022-08-05T18:14:13.452Z,29.89
2022-08-05T18:16:51.868Z,29.92
2022-08-05T18:19:25.822Z,29.89
2022-08-05T18:22:07.466Z,29.89
2022-08-05T18:24:40.430Z,29.88
2022-08-05T18:27:12.845Z,29.87
2022-08-05T18:29:54.364Z,29.88
2022-08-05T18:32:28.108Z,29.90
2022-08-05T18:35:00.589Z,29.91
2022-08-05T18:37:34.481Z,29.89
2022-08-05T18:40:34.316Z,29.88
2022-08-05T18:43:03.366Z,29.88
2022-08-05T18:45:41.511Z,29.87
2022-08-05T18:48:30.299Z,29.88
2022-08-05T18:52:05.293Z,29.89
2022-08-05T18:54:11.112Z,29.88
2022-08-05T18:56:41.385Z,29.90
2022-08-05T18:59:42.966Z,29.90
2022-08-05T19:02:11.165Z,29.90
2022-08-05T19:05:02.708Z,29.91
2022-08-05T19:07:51.805Z,29.89
2022-08-05T19:10:27.903Z,29.86
2022-08-05T19:12:59.637Z,29.85
2022-08-05T19:15:59.644Z,29.86
2022-08-05T19:18:23.772Z,29.87
2022-08-05T19:20:54.904Z,29.87
2022-08-05T19:24:07.090Z,29.85
2022-08-05T19:26:16.770Z,29.87
2022-08-05T19:28:46.755Z,29.86
2022-08-05T19:31:21.403Z,29.83
2022-08-05T19:33:56.829Z,29.83
2022-08-05T19:36:29.403Z,29.84
2022-08-05T19:39:01.916Z,29.82
2022-08-05T19:41:58.077Z,29.83
